createdAt,value
2022-10-30T00:00:34.272Z,32.45
2022-10-30T00:03:02.535Z,29.50
2022-10-30T00:05:30.443Z,29.02
2022-10-30T00:07:58.512Z,25.70
2022-10-30T00:10:26.558Z,26.35
2022-10-30T00:12:54.747Z,31.33
2022-10-30T00:15:22.295Z,30.00
2022-10-30T00:17:51.254Z,26.95
2022-10-30T00:20:18.942Z,27.52
2022-10-30T00:22:46.473Z,27.85
2022-10-30T00:25:14.195Z,31.10
2022-10-30T00:27:41.792Z,30.88
2022-10-30T00:30:09.981Z,26.70
2022-10-30T00:32:37.493Z,27.02
2022-10-30T00:35:07.462Z,28.70
2022-10-30T00:37:35.386Z,29.48
2022-10-30T00:40:02.944Z,28.70
2022-10-30T00:42:31.259Z,26.20
2022-10-30T00:44:59.190Z,28.55
2022-10-30T00:47:28.765Z,29.90
2022-10-30T00:49:58.546Z,33.45
2022-10-30T00:52:29.527Z,26.05
2022-10-30T00:54:57.569Z,25.88
2022-10-30T00:57:26.760Z,35.50
2022-10-30T00:59:54.642Z,33.92
2022-10-30T01:02:22.957Z,26.15
2022-10-30T01:04:51.607Z,32.92
2022-10-30T01:07:19.187Z,27.95
2022-10-30T01:09:48.889Z,28.17
2022-10-30T01:12:17.047Z,31.77
2022-10-30T01:14:46.448Z,26.05
2022-10-30T01:17:26.957Z,25.73
2022-10-30T01:22:36.955Z,29.98
2022-10-30T01:25:12.651Z,30.15
2022-10-30T01:27:49.631Z,25.80
2022-10-30T01:30:21.221Z,26.17
2022-10-30T01:32:54.334Z,26.13
2022-10-30T01:35:28.327Z,24.35
2022-10-30T01:37:58.100Z,28.60
2022-10-30T01:40:27.280Z,30.25
2022-10-30T01:42:56.737Z,24.77
2022-10-30T01:45:33.022Z,29.85
2022-10-30T01:48:15.628Z,28.65
2022-10-30T01:50:53.572Z,23.75
2022-10-30T01:53:27.755Z,26.92
2022-10-30T01:55:58.692Z,26.63
2022-10-30T01:58:29.171Z,33.15
2022-10-30T02:00:59.326Z,22.88
2022-10-30T02:03:27.443Z,24.20
2022-10-30T02:05:55.167Z,25.27
2022-10-30T02:08:24.502Z,25.58
2022-10-30T02:10:53.520Z,25.92
2022-10-30T02:13:34.314Z,29.80
2022-10-30T02:16:01.990Z,22.60
2022-10-30T02:18:30.086Z,23.77
2022-10-30T02:20:59.084Z,27.95
2022-10-30T02:23:26.701Z,25.30
2022-10-30T02:25:55.512Z,22.15
2022-10-30T02:28:23.192Z,21.45
2022-10-30T02:30:50.861Z,21.90
2022-10-30T02:35:50.941Z,22.02
2022-10-30T02:38:19.888Z,22.13
2022-10-30T02:40:47.492Z,22.15
2022-10-30T02:43:15.011Z,21.45
2022-10-30T02:45:42.521Z,20.48
2022-10-30T02:50:43.559Z,22.95
2022-10-30T02:53:11.251Z,23.85
2022-10-30T02:55:40.073Z,19.65
2022-10-30T02:58:07.688Z,18.20
2022-10-30T03:00:35.602Z,20.10
2022-10-30T03:03:03.203Z,27.55
2022-10-30T03:05:30.729Z,19.92
2022-10-30T03:07:58.608Z,20.83
2022-10-30T03:10:26.629Z,18.02
2022-10-30T03:12:55.567Z,18.63
2022-10-30T03:15:23.105Z,19.63
2022-10-30T03:17:52.576Z,15.57
2022-10-30T03:20:20.223Z,15.02
2022-10-30T03:22:47.715Z,16.77
2022-10-30T03:25:15.361Z,19.42
2022-10-30T03:27:42.916Z,14.10
2022-10-30T03:30:12.676Z,13.10
2022-10-30T03:32:40.219Z,15.25
2022-10-30T03:35:08.040Z,16.95
2022-10-30T03:37:35.612Z,15.93
2022-10-30T03:40:03.543Z,20.20
2022-10-30T03:42:32.931Z,18.65
2022-10-30T03:45:00.464Z,17.42
2022-10-30T03:47:31.260Z,21.70
2022-10-30T03:49:58.867Z,19.33
2022-10-30T03:52:26.486Z,22.42
2022-10-30T03:54:54.676Z,21.45
2022-10-30T03:57:22.467Z,19.83
2022-10-30T04:00:04.673Z,20.05
2022-10-30T04:02:57.536Z,22.35
2022-10-30T04:05:27.348Z,22.80
2022-10-30T04:07:57.343Z,21.50
2022-10-30T04:10:25.790Z,19.55
2022-10-30T04:13:00.364Z,22.33
2022-10-30T04:15:28.346Z,21.15
2022-10-30T04:17:57.584Z,26.70
2022-10-30T04:20:26.499Z,26.73
2022-10-30T04:22:56.880Z,24.52
2022-10-30T04:25:25.015Z,23.60
2022-10-30T04:27:53.456Z,22.33
2022-10-30T04:30:22.145Z,24.33
2022-10-30T04:32:50.063Z,22.23
2022-10-30T04:35:21.435Z,24.20
2022-10-30T04:37:53.109Z,23.08
2022-10-30T04:40:20.680Z,23.45
2022-10-30T04:42:54.495Z,21.67
2022-10-30T04:45:22.419Z,24.00
2022-10-30T04:47:50.259Z,22.38
2022-10-30T04:50:17.908Z,24.05
2022-10-30T04:52:46.774Z,22.23
2022-10-30T04:55:14.365Z,22.80
2022-10-30T04:57:43.947Z,23.75
2022-10-30T05:00:12.027Z,19.75
2022-10-30T05:02:40.062Z,19.77
2022-10-30T05:05:08.268Z,19.13
2022-10-30T05:07:36.227Z,25.25
2022-10-30T05:10:06.027Z,22.92
2022-10-30T05:12:33.662Z,22.30
2022-10-30T05:15:01.266Z,20.65
2022-10-30T05:20:01.479Z,22.17
2022-10-30T05:22:29.157Z,26.27
2022-10-30T05:24:56.682Z,24.33
2022-10-30T05:27:25.847Z,20.83
2022-10-30T05:29:53.474Z,20.52
2022-10-30T05:32:21.118Z,21.92
2022-10-30T05:34:50.483Z,24.70
2022-10-30T05:37:22.039Z,17.20
2022-10-30T05:39:49.733Z,22.55
2022-10-30T05:42:31.728Z,25.60
2022-10-30T05:45:02.866Z,25.58
2022-10-30T05:47:34.786Z,24.45
2022-10-30T05:50:02.983Z,23.23
2022-10-30T05:52:30.510Z,23.15
2022-10-30T05:54:59.857Z,20.63
2022-10-30T05:57:42.207Z,20.52
2022-10-30T06:00:11.442Z,18.90
2022-10-30T06:02:42.952Z,19.33
2022-10-30T06:05:11.107Z,21.73
2022-10-30T06:07:38.669Z,21.88
2022-10-30T06:10:07.700Z,20.13
2022-10-30T06:12:42.764Z,23.88
2022-10-30T06:15:15.874Z,19.85
2022-10-30T06:17:43.458Z,20.38
2022-10-30T06:20:33.812Z,22.10
2022-10-30T06:23:20.816Z,20.67
2022-10-30T06:25:52.720Z,22.63
2022-10-30T06:28:32.326Z,21.55
2022-10-30T06:30:59.866Z,22.27
2022-10-30T06:33:27.778Z,24.30
2022-10-30T06:35:56.095Z,21.33
2022-10-30T06:38:23.958Z,24.27
2022-10-30T06:40:52.834Z,23.65
2022-10-30T06:43:34.823Z,25.50
2022-10-30T06:46:10.648Z,21.08
2022-10-30T06:48:41.207Z,20.38
2022-10-30T06:51:08.745Z,18.08
2022-10-30T06:53:39.354Z,18.20
2022-10-30T06:56:25.400Z,22.35
2022-10-30T06:59:09.718Z,24.15
2022-10-30T07:01:44.856Z,24.33
2022-10-30T07:04:17.535Z,20.30
2022-10-30T07:06:45.725Z,26.35
2022-10-30T07:09:13.519Z,19.83
2022-10-30T07:11:45.613Z,19.05
2022-10-30T07:14:29.593Z,24.52
2022-10-30T07:17:19.891Z,16.98
2022-10-30T07:19:53.911Z,18.88
2022-10-30T07:22:21.760Z,21.85
2022-10-30T07:24:53.032Z,23.45
2022-10-30T07:27:44.158Z,23.40
2022-10-30T07:30:29.301Z,22.88
2022-10-30T07:33:13.205Z,18.55
2022-10-30T07:36:07.471Z,19.80
2022-10-30T07:39:04.532Z,22.85
2022-10-30T07:41:36.333Z,22.13
2022-10-30T07:44:36.313Z,25.02
2022-10-30T07:47:15.470Z,21.77
2022-10-30T07:50:02.051Z,19.50
2022-10-30T07:52:32.100Z,20.40
2022-10-30T07:55:00.012Z,21.88
2022-10-30T07:57:46.008Z,19.50
2022-10-30T08:00:33.841Z,21.35
2022-10-30T08:03:19.067Z,20.05
2022-10-30T08:05:51.731Z,19.05
2022-10-30T08:08:29.088Z,21.45
2022-10-30T08:11:08.259Z,21.70
2022-10-30T08:13:36.644Z,21.65
2022-10-30T08:16:04.203Z,19.60
2022-10-30T08:18:33.084Z,21.02
2022-10-30T08:21:00.565Z,18.70
2022-10-30T08:23:28.116Z,21.70
2022-10-30T08:26:00.212Z,20.92
2022-10-30T08:28:31.833Z,22.98
2022-10-30T08:31:03.296Z,26.17
2022-10-30T08:33:52.193Z,22.90
2022-10-30T08:36:38.333Z,21.40
2022-10-30T08:39:06.028Z,23.02
2022-10-30T08:41:47.073Z,22.67
2022-10-30T08:44:14.738Z,21.92
2022-10-30T08:47:02.275Z,28.98
2022-10-30T08:49:31.172Z,20.88
2022-10-30T08:52:00.748Z,19.30
2022-10-30T08:54:28.444Z,19.42
2022-10-30T08:56:56.511Z,24.55
2022-10-30T08:59:25.203Z,20.67
2022-10-30T09:01:55.673Z,23.20
2022-10-30T09:04:23.610Z,19.83
2022-10-30T09:07:12.975Z,18.50
2022-10-30T09:10:02.597Z,19.17
2022-10-30T09:12:33.290Z,16.52
2022-10-30T09:15:01.472Z,16.45
2022-10-30T09:17:31.160Z,17.05
2022-10-30T09:19:58.762Z,14.88
2022-10-30T09:22:40.607Z,15.63
2022-10-30T09:25:09.046Z,18.58
2022-10-30T09:27:53.410Z,13.20
2022-10-30T09:30:23.883Z,12.48
2022-10-30T09:32:57.559Z,11.38
2022-10-30T09:35:37.281Z,15.88
2022-10-30T09:38:06.422Z,10.65
2022-10-30T09:40:40.551Z,10.77
2022-10-30T09:43:12.674Z,13.80
2022-10-30T09:45:49.667Z,11.75
2022-10-30T09:48:27.953Z,13.75
2022-10-30T09:51:09.533Z,12.63
2022-10-30T09:53:43.348Z,12.02
2022-10-30T09:56:20.474Z,11.52
2022-10-30T09:58:55.062Z,16.20
2022-10-30T10:01:25.121Z,16.15
2022-10-30T10:04:02.653Z,12.05
2022-10-30T10:06:51.258Z,17.05
2022-10-30T10:09:41.998Z,10.77
2022-10-30T10:12:36.207Z,10.75
2022-10-30T10:15:06.856Z,13.55
2022-10-30T10:17:35.729Z,17.30
2022-10-30T10:20:05.639Z,17.58
2022-10-30T10:22:36.525Z,15.52
2022-10-30T10:25:07.614Z,14.13
2022-10-30T10:27:42.379Z,21.05
2022-10-30T10:30:12.095Z,24.88
2022-10-30T10:32:46.065Z,16.00
2022-10-30T10:35:36.656Z,18.48
2022-10-30T10:38:08.079Z,11.05
2022-10-30T10:40:41.637Z,12.27
2022-10-30T10:43:13.997Z,14.30
2022-10-30T10:45:45.277Z,11.88
2022-10-30T10:48:18.025Z,13.32
2022-10-30T10:50:49.526Z,15.02
2022-10-30T10:53:20.422Z,12.43
2022-10-30T10:55:50.618Z,18.85
2022-10-30T10:58:23.021Z,14.15
2022-10-30T11:00:50.923Z,12.52
2022-10-30T11:03:21.129Z,11.75
2022-10-30T11:05:51.308Z,17.55
2022-10-30T11:08:20.740Z,14.93
2022-10-30T11:10:52.394Z,13.57
2022-10-30T11:13:20.123Z,14.13
2022-10-30T11:15:52.302Z,11.60
2022-10-30T11:18:19.824Z,13.77
2022-10-30T11:20:52.672Z,13.63
2022-10-30T11:23:39.595Z,14.55
2022-10-30T11:26:22.243Z,14.02
2022-10-30T11:28:52.987Z,13.57
2022-10-30T11:31:22.193Z,15.05
2022-10-30T11:33:50.214Z,13.55
2022-10-30T11:36:19.202Z,11.63
2022-10-30T11:38:46.843Z,14.38
2022-10-30T11:41:15.352Z,13.02
2022-10-30T11:43:44.130Z,14.10
2022-10-30T11:46:18.466Z,16.17
2022-10-30T11:48:46.415Z,15.45
2022-10-30T11:51:14.396Z,12.15
2022-10-30T11:53:44.453Z,11.93
2022-10-30T11:56:14.724Z,16.80
2022-10-30T11:58:44.801Z,18.63
2022-10-30T12:01:17.869Z,15.32
2022-10-30T12:03:45.585Z,13.30
2022-10-30T12:06:19.057Z,12.85
2022-10-30T12:09:01.483Z,11.50
2022-10-30T12:11:30.549Z,11.95
2022-10-30T12:13:58.337Z,17.33
2022-10-30T12:16:27.849Z,19.90
2022-10-30T12:18:58.755Z,15.05
2022-10-30T12:21:27.141Z,13.15
2022-10-30T12:23:56.466Z,14.05
2022-10-30T12:26:24.667Z,11.55
2022-10-30T12:28:54.698Z,14.95
2022-10-30T12:31:26.239Z,14.98
2022-10-30T12:33:59.621Z,13.77
2022-10-30T12:36:28.853Z,16.17
2022-10-30T12:38:58.252Z,13.43
2022-10-30T12:41:27.722Z,14.52
2022-10-30T12:43:59.842Z,16.98
2022-10-30T12:46:34.273Z,17.23
2022-10-30T12:49:09.047Z,13.60
2022-10-30T12:51:40.043Z,20.52
2022-10-30T12:54:10.661Z,15.73
2022-10-30T12:56:39.790Z,17.15
2022-10-30T12:59:20.433Z,14.13
2022-10-30T13:01:51.493Z,16.85
2022-10-30T13:04:23.215Z,15.90
2022-10-30T13:06:53.291Z,17.73
2022-10-30T13:09:23.997Z,18.48
2022-10-30T13:11:54.101Z,13.70
2022-10-30T13:14:23.505Z,11.93
2022-10-30T13:16:52.267Z,13.15
2022-10-30T13:19:21.127Z,13.20
2022-10-30T13:21:53.867Z,15.18
2022-10-30T13:24:24.655Z,14.05
2022-10-30T13:26:53.908Z,15.27
2022-10-30T13:29:24.974Z,17.67
2022-10-30T13:31:55.849Z,14.30
2022-10-30T13:34:30.686Z,17.90
2022-10-30T13:37:03.041Z,11.85
2022-10-30T13:39:32.182Z,12.85
2022-10-30T13:42:05.385Z,14.82
2022-10-30T13:44:36.753Z,18.85
2022-10-30T13:47:09.925Z,17.17
2022-10-30T13:49:47.442Z,18.50
2022-10-30T13:52:16.013Z,17.92
2022-10-30T13:54:46.114Z,19.25
2022-10-30T13:57:18.397Z,15.98
2022-10-30T13:59:52.946Z,14.98
2022-10-30T14:02:26.230Z,18.60
2022-10-30T14:04:58.575Z,13.23
2022-10-30T14:07:31.573Z,15.70
2022-10-30T14:10:02.547Z,18.17
2022-10-30T14:12:46.252Z,18.33
2022-10-30T14:15:19.763Z,15.80
2022-10-30T14:18:02.210Z,15.55
2022-10-30T14:20:31.263Z,14.65
2022-10-30T14:23:08.826Z,17.38
2022-10-30T14:25:36.851Z,14.63
2022-10-30T14:28:04.527Z,12.35
2022-10-30T14:30:34.651Z,13.40
2022-10-30T14:33:02.233Z,14.52
2022-10-30T14:35:38.670Z,12.95
2022-10-30T14:38:25.632Z,14.15
2022-10-30T14:41:08.377Z,15.98
2022-10-30T14:43:44.336Z,14.57
2022-10-30T14:46:18.395Z,14.52
2022-10-30T14:48:47.164Z,20.73
2022-10-30T14:51:20.867Z,18.23
2022-10-30T14:53:55.160Z,14.50
2022-10-30T14:56:27.454Z,13.40
2022-10-30T14:59:10.809Z,17.35
2022-10-30T15:01:43.899Z,15.23
2022-10-30T15:04:16.040Z,17.85
2022-10-30T15:06:51.230Z,19.58
2022-10-30T15:09:24.782Z,15.65
2022-10-30T15:12:00.994Z,22.35
2022-10-30T15:17:23.100Z,17.63
2022-10-30T15:19:51.058Z,17.58
2022-10-30T15:22:21.150Z,15.73
2022-10-30T15:24:49.336Z,21.60
2022-10-30T15:27:17.836Z,18.30
2022-10-30T15:29:47.765Z,17.92
2022-10-30T15:32:20.013Z,20.58
2022-10-30T15:34:54.980Z,21.13
2022-10-30T15:37:24.252Z,16.50
2022-10-30T15:40:09.887Z,21.50
2022-10-30T15:42:38.208Z,24.33
2022-10-30T15:45:06.315Z,22.92
2022-10-30T15:47:34.109Z,24.42
2022-10-30T15:50:01.788Z,20.38
2022-10-30T15:52:32.552Z,20.80
2022-10-30T15:55:01.044Z,21.15
2022-10-30T15:58:01.625Z,23.00
2022-10-30T16:00:21.400Z,22.95
2022-10-30T16:02:50.086Z,19.02
2022-10-30T16:05:21.383Z,23.25
2022-10-30T16:07:50.458Z,23.75
2022-10-30T16:10:18.725Z,24.92
2022-10-30T16:12:46.312Z,26.02
2022-10-30T16:15:21.527Z,24.23
2022-10-30T16:17:53.091Z,20.70
2022-10-30T16:20:23.782Z,22.00
2022-10-30T16:22:52.631Z,27.70
2022-10-30T16:25:21.671Z,20.75
2022-10-30T16:27:49.219Z,38.05
2022-10-30T16:30:17.409Z,23.17
2022-10-30T16:32:52.014Z,27.83
2022-10-30T16:35:20.424Z,23.73
2022-10-30T16:37:48.076Z,32.22
2022-10-30T16:40:18.013Z,36.97
2022-10-30T16:42:47.204Z,30.35
2022-10-30T16:45:42.175Z,34.55
2022-10-30T16:48:13.694Z,33.05
2022-10-30T16:50:41.313Z,30.73
2022-10-30T16:53:12.506Z,37.50
2022-10-30T16:55:41.382Z,34.45
2022-10-30T16:58:11.578Z,30.70
2022-10-30T17:00:40.259Z,37.08
2022-10-30T17:03:09.111Z,43.10
2022-10-30T17:05:37.187Z,48.30
2022-10-30T17:08:06.048Z,44.63
2022-10-30T17:10:34.513Z,48.20
2022-10-30T17:13:20.854Z,49.40
2022-10-30T17:15:49.726Z,42.70
2022-10-30T17:18:17.789Z,44.08
2022-10-30T17:20:45.387Z,44.75
2022-10-30T17:23:15.294Z,49.75
2022-10-30T17:25:43.053Z,48.55
2022-10-30T17:28:25.543Z,50.70
2022-10-30T17:30:54.712Z,47.90
2022-10-30T17:33:27.212Z,47.83
2022-10-30T17:38:27.225Z,51.45
2022-10-30T17:40:54.991Z,48.17
2022-10-30T17:43:24.612Z,45.15
2022-10-30T17:45:52.224Z,45.83
2022-10-30T17:48:22.301Z,49.42
2022-10-30T17:50:49.933Z,48.10
2022-10-30T17:53:21.508Z,53.60
2022-10-30T17:55:53.040Z,53.20
2022-10-30T17:58:23.577Z,48.42
2022-10-30T18:00:51.273Z,46.90
2022-10-30T18:03:19.072Z,52.70
2022-10-30T18:05:48.535Z,49.17
2022-10-30T18:08:16.154Z,45.78
2022-10-30T18:10:43.700Z,50.78
2022-10-30T18:13:12.836Z,53.53
2022-10-30T18:15:42.081Z,49.28
2022-10-30T18:18:09.691Z,49.75
2022-10-30T18:20:37.540Z,44.75
2022-10-30T18:23:10.247Z,46.28
2022-10-30T18:25:37.968Z,46.10
2022-10-30T18:28:05.568Z,46.75
2022-10-30T18:30:33.125Z,48.65
2022-10-30T18:33:01.109Z,48.92
2022-10-30T18:35:31.201Z,44.70
2022-10-30T18:37:58.950Z,47.60
2022-10-30T18:40:28.099Z,45.35
2022-10-30T18:42:56.039Z,45.40
2022-10-30T18:45:24.468Z,37.67
2022-10-30T18:47:52.378Z,33.08
2022-10-30T18:50:21.194Z,43.45
2022-10-30T18:52:49.235Z,36.95
2022-10-30T18:55:18.393Z,46.08
2022-10-30T18:57:47.362Z,36.47
2022-10-30T19:00:15.568Z,33.50
2022-10-30T19:02:43.323Z,35.80
2022-10-30T19:05:19.584Z,30.92
2022-10-30T19:07:47.327Z,33.15
2022-10-30T19:10:15.293Z,36.97
2022-10-30T19:13:04.273Z,33.15
2022-10-30T19:15:33.298Z,37.90
2022-10-30T19:18:01.708Z,32.10
2022-10-30T19:20:50.626Z,33.80
2022-10-30T19:23:18.192Z,38.15
2022-10-30T19:25:47.467Z,30.02
2022-10-30T19:28:15.649Z,34.08
2022-10-30T19:30:50.131Z,30.20
2022-10-30T19:33:18.479Z,29.67
2022-10-30T19:35:46.089Z,29.77
2022-10-30T19:38:14.173Z,31.92
2022-10-30T19:40:44.132Z,36.13
2022-10-30T19:43:11.758Z,33.45
2022-10-30T19:45:39.332Z,31.85
2022-10-30T19:48:12.354Z,39.95
2022-10-30T19:50:40.311Z,37.20
2022-10-30T19:53:08.361Z,38.15
2022-10-30T19:55:37.905Z,40.17
2022-10-30T19:58:06.068Z,37.60
2022-10-30T20:00:34.431Z,40.95
2022-10-30T20:03:02.497Z,41.03
2022-10-30T20:05:32.491Z,35.35
2022-10-30T20:08:01.831Z,36.08
2022-10-30T20:10:30.898Z,28.55
2022-10-30T20:12:58.658Z,29.13
2022-10-30T20:15:27.428Z,26.80
2022-10-30T20:17:55.259Z,25.83
2022-10-30T20:20:23.922Z,26.13
2022-10-30T20:22:52.801Z,28.45
2022-10-30T20:25:21.412Z,27.80
2022-10-30T20:27:49.949Z,28.73
2022-10-30T20:30:19.035Z,30.52
2022-10-30T20:32:46.845Z,24.35
2022-10-30T20:35:14.881Z,24.83
2022-10-30T20:37:42.991Z,23.23
2022-10-30T20:40:14.399Z,25.80
2022-10-30T20:42:42.596Z,21.95
2022-10-30T20:45:14.998Z,23.13
2022-10-30T20:47:42.980Z,22.23
2022-10-30T20:50:10.759Z,22.48
2022-10-30T20:52:38.333Z,29.13
2022-10-30T20:55:06.482Z,25.42
2022-10-30T20:57:35.456Z,31.38
2022-10-30T21:00:03.076Z,22.40
2022-10-30T21:02:30.713Z,20.45
2022-10-30T21:05:11.321Z,26.80
2022-10-30T21:07:45.002Z,20.63
2022-10-30T21:10:12.657Z,25.48
2022-10-30T21:12:41.721Z,21.67
2022-10-30T21:15:09.561Z,28.75
2022-10-30T21:17:37.411Z,30.70
2022-10-30T21:20:05.145Z,29.63
2022-10-30T21:22:32.719Z,33.90
2022-10-30T21:25:00.328Z,37.50
2022-10-30T21:27:28.087Z,35.97
2022-10-30T21:29:57.005Z,29.65
2022-10-30T21:32:24.551Z,39.15
2022-10-30T21:34:52.152Z,36.50
2022-10-30T21:37:19.694Z,38.85
2022-10-30T21:39:47.288Z,48.10
2022-10-30T21:42:14.970Z,49.20
2022-10-30T21:44:42.551Z,53.05
2022-10-30T21:47:11.457Z,57.10
2022-10-30T21:49:39.051Z,46.42
2022-10-30T21:52:06.700Z,47.53
2022-10-30T21:54:34.263Z,45.53
2022-10-30T21:57:01.962Z,55.30
2022-10-30T21:59:29.743Z,49.55
2022-10-30T22:01:57.361Z,57.60
2022-10-30T22:04:26.239Z,53.70
2022-10-30T22:06:53.898Z,41.57
2022-10-30T22:09:21.612Z,38.72
2022-10-30T22:11:49.373Z,44.67
2022-10-30T22:14:16.887Z,42.83
2022-10-30T22:16:45.042Z,42.03
2022-10-30T22:19:12.670Z,47.10
2022-10-30T22:21:41.553Z,42.50
2022-10-30T22:24:09.317Z,46.13
2022-10-30T22:26:36.939Z,45.00
2022-10-30T22:29:04.625Z,47.30
2022-10-30T22:31:32.238Z,48.35
2022-10-30T22:34:00.697Z,42.30
2022-10-30T22:36:29.072Z,42.75
2022-10-30T22:38:59.564Z,48.88
2022-10-30T22:41:28.762Z,43.83
2022-10-30T22:43:59.244Z,37.85
2022-10-30T22:46:27.521Z,38.42
2022-10-30T22:48:55.187Z,37.97
2022-10-30T22:51:22.897Z,36.13
2022-10-30T22:53:55.854Z,34.80
2022-10-30T22:56:26.043Z,35.85
2022-10-30T22:58:55.018Z,32.88
2022-10-30T23:01:24.319Z,32.05
2022-10-30T23:03:52.666Z,32.30
2022-10-30T23:06:20.631Z,35.03
2022-10-30T23:08:48.457Z,34.90
2022-10-30T23:11:16.565Z,35.13
2022-10-30T23:13:46.161Z,33.60
2022-10-30T23:16:14.720Z,34.03
2022-10-30T23:18:42.234Z,35.38
2022-10-30T23:21:11.647Z,35.63
2022-10-30T23:23:39.947Z,34.78
2022-10-30T23:26:11.760Z,32.30
2022-10-30T23:28:40.730Z,33.15
2022-10-30T23:31:09.860Z,32.97
2022-10-30T23:33:37.385Z,33.63
2022-10-30T23:36:05.264Z,36.75
2022-10-30T23:38:32.785Z,33.72
2022-10-30T23:41:00.262Z,45.00
2022-10-30T23:43:27.823Z,41.10
2022-10-30T23:45:55.333Z,46.25
2022-10-30T23:48:24.259Z,50.00
2022-10-30T23:50:51.817Z,41.58
2022-10-30T23:53:19.430Z,44.25
2022-10-30T23:55:50.751Z,39.90
2022-10-30T23:58:18.384Z,38.65
